Time;durP1;ratioP1;P1;durP2;ratioP2;P2;SDS_P1;SDS_P2;PMS_P1;PMS_P2;Temp;Humidity;BMP_temperature;BMP_pressure;BME280_temperature;BME280_humidity;BME280_pressure;Samples;Min_cycle;Max_cycle;Signal;HPM_P1;HPM_P2
2024/01/28 00:01:07;;;;;;;11.68;7.85;;;1.70;65.90;;;;;;5073962;28;20273;-72
2024/01/28 00:03:35;;;;;;;11.75;7.55;;;1.70;65.70;;;;;;5073998;28;20229;-72
2024/01/28 00:06:01;;;;;;;11.85;8.15;;;1.70;65.70;;;;;;5073590;28;20236;-72
2024/01/28 00:08:30;;;;;;;10.90;8.25;;;1.60;65.40;;;;;;5073408;28;20276;-72
2024/01/28 00:10:57;;;;;;;10.02;7.05;;;1.60;65.50;;;;;;5073779;28;20281;-71
2024/01/28 00:13:25;;;;;;;12.63;8.20;;;1.60;65.50;;;;;;5073697;28;20241;-72
2024/01/28 00:15:53;;;;;;;13.13;8.65;;;1.60;65.60;;;;;;5073337;28;20190;-72
2024/01/28 00:18:20;;;;;;;9.57;7.20;;;1.50;65.30;;;;;;5084461;28;20217;-72
2024/01/28 00:20:47;;;;;;;10.55;7.25;;;1.50;65.00;;;;;;5093453;28;20173;-71
2024/01/28 00:23:14;;;;;;;10.40;7.78;;;1.50;64.80;;;;;;5093635;28;20283;-71
2024/01/28 00:25:43;;;;;;;10.55;6.57;;;1.50;64.90;;;;;;5093839;28;20181;-72
2024/01/28 00:28:10;;;;;;;8.30;6.18;;;1.40;65.40;;;;;;5093761;28;20224;-72
2024/01/28 00:30:37;;;;;;;11.10;6.63;;;1.40;65.20;;;;;;5093840;28;20607;-72
2024/01/28 00:33:04;;;;;;;9.82;6.68;;;1.50;65.40;;;;;;5093322;28;20245;-71
2024/01/28 00:35:31;;;;;;;9.05;6.75;;;1.40;65.60;;;;;;5093310;28;20177;-71
2024/01/28 00:37:59;;;;;;;9.40;7.32;;;1.50;66.30;;;;;;5093460;28;20276;-71
2024/01/28 00:40:26;;;;;;;8.45;6.32;;;1.50;66.40;;;;;;5093263;28;20722;-71
2024/01/28 00:42:54;;;;;;;7.55;5.78;;;1.50;66.40;;;;;;5093675;28;20228;-71
2024/01/28 00:45:21;;;;;;;9.15;7.15;;;1.50;66.20;;;;;;5093551;28;20622;-72
2024/01/28 00:47:48;;;;;;;8.60;7.05;;;1.50;65.80;;;;;;5093611;28;20281;-71
2024/01/28 00:50:15;;;;;;;8.95;6.40;;;1.40;66.30;;;;;;5088012;28;20210;-72
2024/01/28 00:52:43;;;;;;;9.43;6.65;;;1.40;66.80;;;;;;5073233;28;20245;-72
2024/01/28 00:55:11;;;;;;;7.40;5.68;;;1.40;67.60;;;;;;5073005;28;20186;-72
2024/01/28 00:57:38;;;;;;;8.00;5.60;;;1.40;67.70;;;;;;5073414;28;20213;-72
2024/01/28 01:00:08;;;;;;;7.18;6.10;;;1.30;67.10;;;;;;5072934;28;20277;-72
2024/01/28 01:02:34;;;;;;;8.63;6.47;;;1.30;67.30;;;;;;5072939;28;20281;-71
2024/01/28 01:05:02;;;;;;;8.40;6.50;;;1.30;67.70;;;;;;5078365;28;20227;-71
2024/01/28 01:07:29;;;;;;;8.00;5.80;;;1.30;68.20;;;;;;5093444;28;20213;-72
2024/01/28 01:09:57;;;;;;;7.38;5.03;;;1.30;68.90;;;;;;5093104;28;20261;-72
2024/01/28 01:12:24;;;;;;;10.20;6.13;;;1.30;70.20;;;;;;5093473;28;20244;-71
2024/01/28 01:14:51;;;;;;;8.77;5.90;;;1.40;69.50;;;;;;5085012;28;20194;-71
2024/01/28 01:17:19;;;;;;;10.25;6.00;;;1.40;68.10;;;;;;5091900;28;20268;-72
2024/01/28 01:19:46;;;;;;;9.00;5.18;;;1.30;67.90;;;;;;5091838;28;20212;-71
2024/01/28 01:22:14;;;;;;;9.35;5.10;;;1.40;68.60;;;;;;5092809;28;20186;-71
2024/01/28 01:24:41;;;;;;;7.13;5.75;;;1.40;68.80;;;;;;5091341;28;20193;-70
2024/01/28 01:27:07;;;;;;;9.60;5.93;;;1.40;68.40;;;;;;5092933;28;20280;-72
2024/01/28 01:29:34;;;;;;;6.30;4.60;;;1.40;67.70;;;;;;5097147;28;20588;-71
2024/01/28 01:32:02;;;;;;;6.68;5.05;;;1.40;66.00;;;;;;5096887;28;20301;-71
2024/01/28 01:34:31;;;;;;;8.43;5.55;;;1.40;65.60;;;;;;5081057;28;20265;-72
2024/01/28 01:36:58;;;;;;;8.60;4.32;;;1.40;65.50;;;;;;5076582;28;20218;-70
2024/01/28 01:39:25;;;;;;;5.97;4.35;;;1.30;66.00;;;;;;5076658;28;20269;-71
2024/01/28 01:41:52;;;;;;;6.85;4.45;;;1.40;67.20;;;;;;5076559;28;20270;-71
2024/01/28 01:44:20;;;;;;;5.93;4.38;;;1.30;66.10;;;;;;5076319;28;20226;-71
2024/01/28 01:46:47;;;;;;;7.68;4.50;;;1.30;66.90;;;;;;5076152;28;20189;-71
2024/01/28 01:49:16;;;;;;;10.00;5.03;;;1.30;66.20;;;;;;5091417;28;20267;-70
2024/01/28 01:51:45;;;;;;;8.18;5.13;;;1.30;66.00;;;;;;5096300;28;20231;-73
2024/01/28 01:54:12;;;;;;;6.47;3.78;;;1.20;66.20;;;;;;5096590;28;20196;-71
2024/01/28 01:56:40;;;;;;;8.70;4.55;;;1.20;66.60;;;;;;5096630;28;20217;-71
2024/01/28 01:59:07;;;;;;;6.80;4.43;;;1.20;66.80;;;;;;5096096;28;20181;-71
2024/01/28 02:01:36;;;;;;;6.15;4.32;;;1.20;67.60;;;;;;5096240;28;20213;-71
2024/01/28 02:04:03;;;;;;;7.35;4.75;;;1.20;67.80;;;;;;5079576;28;20182;-71
2024/01/28 02:06:30;;;;;;;4.88;3.78;;;1.20;67.80;;;;;;5075645;28;20190;-71
2024/01/28 02:08:59;;;;;;;6.80;4.70;;;1.20;67.10;;;;;;5075825;28;20186;-71
2024/01/28 02:11:26;;;;;;;10.50;4.70;;;1.20;66.70;;;;;;5090905;28;20663;-71
2024/01/28 02:13:53;;;;;;;5.32;4.82;;;1.20;66.40;;;;;;5095754;28;20593;-72
2024/01/28 02:16:20;;;;;;;7.13;4.95;;;1.10;65.60;;;;;;5095459;28;20178;-72
2024/01/28 02:18:47;;;;;;;4.70;3.60;;;1.10;65.10;;;;;;5096171;28;20304;-72
2024/01/28 02:21:14;;;;;;;7.38;3.78;;;1.10;65.60;;;;;;5095740;28;20221;-71
2024/01/28 02:23:43;;;;;;;8.50;4.32;;;1.10;65.50;;;;;;5096145;28;20227;-71
2024/01/28 02:26:10;;;;;;;4.93;3.65;;;1.00;65.10;;;;;;5095958;28;20272;-71
2024/01/28 02:28:37;;;;;;;5.85;4.40;;;1.00;65.40;;;;;;5086163;28;20256;-71
2024/01/28 02:31:04;;;;;;;5.47;4.07;;;0.90;65.50;;;;;;5082250;28;20627;-72
2024/01/28 02:33:31;;;;;;;4.70;3.78;;;0.90;65.70;;;;;;5094918;28;20300;-71
2024/01/28 02:35:58;;;;;;;5.53;4.15;;;0.90;65.40;;;;;;5095190;28;20216;-70
2024/01/28 02:38:25;;;;;;;7.43;4.82;;;0.80;65.00;;;;;;5095488;28;20185;-71
2024/01/28 02:40:55;;;;;;;6.85;5.78;;;0.80;65.90;;;;;;5095390;28;20674;-71
2024/01/28 02:43:22;;;;;;;6.07;4.22;;;0.80;64.90;;;;;;5095289;28;20219;-72
2024/01/28 02:45:49;;;;;;;8.57;4.20;;;0.80;64.60;;;;;;5095639;28;20223;-72
2024/01/28 02:48:16;;;;;;;6.47;4.20;;;0.70;64.20;;;;;;5095311;28;20225;-72
2024/01/28 02:50:43;;;;;;;4.40;3.72;;;0.70;64.50;;;;;;5095382;28;20277;-71
2024/01/28 02:53:09;;;;;;;7.70;3.55;;;0.70;64.00;;;;;;5095096;28;20630;-71
2024/01/28 02:55:37;;;;;;;5.20;3.25;;;0.70;63.70;;;;;;5092285;28;20273;-73
2024/01/28 02:58:06;;;;;;;9.43;4.10;;;0.60;64.00;;;;;;5094215;28;20184;-72
2024/01/28 03:00:35;;;;;;;5.25;3.70;;;0.60;64.40;;;;;;5092859;28;20258;-72
2024/01/28 03:03:04;;;;;;;6.22;3.88;;;0.60;65.00;;;;;;5094824;28;20186;-73
2024/01/28 03:05:31;;;;;;;4.30;3.67;;;0.60;65.60;;;;;;5094788;28;20193;-72
2024/01/28 03:07:58;;;;;;;4.63;3.55;;;0.60;65.50;;;;;;5095006;28;20280;-73
2024/01/28 03:10:25;;;;;;;8.48;4.13;;;0.60;65.60;;;;;;5094627;28;20589;-73
2024/01/28 03:12:51;;;;;;;7.63;3.33;;;0.50;65.30;;;;;;5095321;28;20299;-73
2024/01/28 03:15:20;;;;;;;6.85;3.75;;;0.50;65.40;;;;;;5095283;28;20288;-73
2024/01/28 03:17:47;;;;;;;5.40;3.55;;;0.50;65.20;;;;;;5094965;28;20317;-72
2024/01/28 03:20:14;;;;;;;6.63;3.90;;;0.50;65.10;;;;;;5095177;28;20276;-72
2024/01/28 03:22:41;;;;;;;6.45;4.22;;;0.50;65.40;;;;;;5095088;28;20383;-72
2024/01/28 03:25:09;;;;;;;5.80;3.78;;;0.50;65.80;;;;;;5094627;28;20577;-72
2024/01/28 03:27:36;;;;;;;5.00;3.67;;;0.40;65.20;;;;;;5094722;28;20186;-73
2024/01/28 03:30:04;;;;;;;5.75;3.72;;;0.40;65.30;;;;;;5094691;28;20192;-72
2024/01/28 03:32:33;;;;;;;7.22;4.25;;;0.50;65.80;;;;;;5094888;28;20185;-73
2024/01/28 03:35:01;;;;;;;7.07;3.85;;;0.40;64.60;;;;;;5094524;28;20220;-72
2024/01/28 03:37:28;;;;;;;8.90;4.72;;;0.40;65.10;;;;;;5094606;28;20628;-72
2024/01/28 03:39:55;;;;;;;8.00;4.35;;;0.40;65.30;;;;;;5094398;28;20221;-73
2024/01/28 03:42:23;;;;;;;7.90;4.40;;;0.40;65.30;;;;;;5094424;28;20220;-73
2024/01/28 03:44:50;;;;;;;8.02;3.80;;;0.40;65.00;;;;;;5094380;28;20189;-71
2024/01/28 03:47:17;;;;;;;7.65;3.83;;;0.40;64.70;;;;;;5094635;28;20279;-73
2024/01/28 03:49:46;;;;;;;6.35;4.03;;;0.40;63.90;;;;;;5093596;28;20276;-73
2024/01/28 03:52:13;;;;;;;6.75;5.35;;;0.30;63.50;;;;;;5094272;28;20627;-73
2024/01/28 03:54:39;;;;;;;10.27;5.70;;;0.30;63.60;;;;;;5093548;28;20248;-73
2024/01/28 03:57:07;;;;;;;15.25;7.20;;;0.30;64.80;;;;;;5094054;28;20212;-73
2024/01/28 03:59:39;;;;;;;10.85;6.35;;;0.30;65.70;;;;;;5094212;28;20277;-72
2024/01/28 04:02:07;;;;;;;13.02;6.43;;;0.30;65.90;;;;;;5094583;28;20587;-72
2024/01/28 04:04:34;;;;;;;9.23;5.25;;;0.30;65.70;;;;;;5094416;28;20242;-72
2024/01/28 04:07:02;;;;;;;9.95;5.28;;;0.30;65.50;;;;;;5093879;28;20264;-72
2024/01/28 04:09:29;;;;;;;10.77;6.32;;;0.30;65.30;;;;;;5094221;28;20221;-72
2024/01/28 04:11:56;;;;;;;9.93;6.18;;;0.30;65.20;;;;;;5094335;28;20272;-72
2024/01/28 04:14:23;;;;;;;7.88;5.38;;;0.30;65.00;;;;;;5094357;28;20676;-72
2024/01/28 04:16:50;;;;;;;7.53;4.30;;;0.30;64.60;;;;;;5093892;28;20224;-72
2024/01/28 04:19:17;;;;;;;10.00;5.85;;;0.20;63.70;;;;;;5094570;28;20619;-72
2024/01/28 04:21:44;;;;;;;7.53;4.70;;;0.20;63.70;;;;;;5093388;28;20208;-72
2024/01/28 04:24:12;;;;;;;9.73;5.43;;;0.20;63.90;;;;;;5093731;28;20189;-72
2024/01/28 04:26:39;;;;;;;7.30;5.20;;;0.10;63.70;;;;;;5094103;28;20581;-72
2024/01/28 04:29:06;;;;;;;10.68;6.22;;;0.10;63.20;;;;;;5093697;28;20228;-72
2024/01/28 04:31:33;;;;;;;11.98;7.53;;;0.10;63.70;;;;;;5093732;28;20710;-72
2024/01/28 04:34:00;;;;;;;14.75;7.07;;;0.10;63.50;;;;;;5093905;28;20299;-72
2024/01/28 04:36:27;;;;;;;12.30;7.25;;;0.10;63.80;;;;;;5093138;28;20265;-73
2024/01/28 04:38:54;;;;;;;13.75;7.47;;;0.10;64.00;;;;;;5093957;28;20236;-72
2024/01/28 04:41:22;;;;;;;12.50;6.63;;;0.00;64.30;;;;;;5093796;28;20236;-72
2024/01/28 04:43:49;;;;;;;10.52;5.85;;;0.00;64.60;;;;;;5093982;28;20232;-71
2024/01/28 04:46:16;;;;;;;7.20;4.97;;;0.00;64.40;;;;;;5093614;28;20276;-72
2024/01/28 04:48:43;;;;;;;14.20;5.57;;;0.00;64.50;;;;;;5093512;28;20193;-73
2024/01/28 04:51:10;;;;;;;10.90;5.90;;;0.00;64.30;;;;;;5093025;28;20200;-72
2024/01/28 04:53:37;;;;;;;10.15;5.85;;;0.00;64.00;;;;;;5093361;28;20283;-73
2024/01/28 04:56:05;;;;;;;7.95;5.18;;;0.00;64.00;;;;;;5093486;28;20631;-72
2024/01/28 04:58:33;;;;;;;8.45;5.35;;;-0.10;63.90;;;;;;5093575;28;20225;-72
2024/01/28 05:01:00;;;;;;;7.68;5.00;;;-0.10;63.90;;;;;;5086158;28;20679;-72
2024/01/28 05:03:27;;;;;;;8.18;5.22;;;-0.10;63.60;;;;;;5077361;28;20318;-73
2024/01/28 05:05:54;;;;;;;8.75;4.22;;;-0.20;63.40;;;;;;5077612;28;20186;-72
2024/01/28 05:08:21;;;;;;;9.48;5.78;;;-0.10;63.50;;;;;;5077411;28;20213;-72
2024/01/28 05:10:48;;;;;;;10.50;6.30;;;-0.10;63.50;;;;;;5077056;28;20648;-73
2024/01/28 05:13:15;;;;;;;9.05;6.60;;;-0.10;63.80;;;;;;5076998;28;20300;-72
2024/01/28 05:15:44;;;;;;;7.95;5.28;;;-0.10;63.90;;;;;;5085958;28;20532;-72
2024/01/28 05:18:11;;;;;;;14.00;5.85;;;-0.10;63.70;;;;;;5097370;28;20256;-72
2024/01/28 05:20:37;;;;;;;10.32;6.18;;;-0.20;63.50;;;;;;5097513;28;20185;-72
2024/01/28 05:23:05;;;;;;;10.18;5.22;;;-0.20;63.60;;;;;;5097406;28;20272;-72
2024/01/28 05:25:32;;;;;;;11.48;7.20;;;-0.20;64.20;;;;;;5097081;28;20181;-72
2024/01/28 05:27:59;;;;;;;7.28;5.40;;;-0.20;64.20;;;;;;5097043;28;20223;-72
2024/01/28 05:30:29;;;;;;;10.85;4.80;;;-0.20;64.50;;;;;;5095461;28;20540;-73
2024/01/28 05:32:59;;;;;;;5.63;3.28;;;-0.20;64.50;;;;;;5096653;28;20225;-73
2024/01/28 05:35:26;;;;;;;12.02;5.10;;;-0.30;64.40;;;;;;5097407;28;20207;-72
2024/01/28 05:37:54;;;;;;;7.43;4.03;;;-0.20;64.70;;;;;;5097319;28;20196;-72
2024/01/28 05:40:21;;;;;;;7.38;4.18;;;-0.30;65.20;;;;;;5097014;28;20217;-73
2024/01/28 05:42:47;;;;;;;6.03;4.55;;;-0.20;66.40;;;;;;5097222;28;20220;-73
2024/01/28 05:45:14;;;;;;;5.25;3.95;;;-0.30;66.80;;;;;;5087685;28;20218;-72
2024/01/28 05:47:41;;;;;;;5.90;4.25;;;-0.20;67.30;;;;;;5076722;28;20269;-73
2024/01/28 05:50:11;;;;;;;6.05;3.45;;;-0.10;67.90;;;;;;5076721;28;20277;-72
2024/01/28 05:52:38;;;;;;;7.35;4.55;;;-0.10;67.00;;;;;;5076673;28;20185;-73
2024/01/28 05:55:05;;;;;;;7.30;5.72;;;-0.10;65.00;;;;;;5079535;28;20308;-72
2024/01/28 05:57:32;;;;;;;6.93;5.22;;;-0.20;65.60;;;;;;5096745;28;20301;-73
2024/01/28 06:00:00;;;;;;;5.95;4.85;;;-0.20;66.40;;;;;;5096763;28;20276;-72
2024/01/28 06:02:27;;;;;;;6.63;4.03;;;-0.20;66.30;;;;;;5096719;28;20189;-72
2024/01/28 06:04:54;;;;;;;6.25;4.00;;;-0.20;66.00;;;;;;5096386;28;20276;-72
2024/01/28 06:07:22;;;;;;;5.75;4.25;;;-0.30;66.10;;;;;;5096783;28;20221;-72
2024/01/28 06:09:49;;;;;;;6.95;4.57;;;-0.30;66.30;;;;;;5096297;28;20213;-72
2024/01/28 06:12:16;;;;;;;20.10;4.75;;;-0.30;66.60;;;;;;5095873;28;20221;-72
2024/01/28 06:14:43;;;;;;;6.90;3.75;;;-0.30;66.90;;;;;;5096647;28;20209;-72
2024/01/28 06:17:09;;;;;;;5.47;3.50;;;-0.20;67.20;;;;;;5095618;28;20707;-71
2024/01/28 06:19:36;;;;;;;5.30;3.45;;;-0.20;67.90;;;;;;5088691;28;20257;-72
2024/01/28 06:22:04;;;;;;;4.53;3.15;;;-0.20;67.90;;;;;;5075828;28;20273;-72
2024/01/28 06:24:33;;;;;;;9.02;5.72;;;-0.20;68.40;;;;;;5076059;28;20298;-72
2024/01/28 06:27:00;;;;;;;6.95;5.50;;;-0.20;68.60;;;;;;5076155;28;20186;-72
2024/01/28 06:29:27;;;;;;;6.47;4.65;;;-0.20;69.30;;;;;;5076146;28;20213;-72
2024/01/28 06:31:54;;;;;;;14.80;9.13;;;-0.20;69.40;;;;;;5075969;28;20277;-72
2024/01/28 06:34:21;;;;;;;13.50;8.60;;;-0.10;69.60;;;;;;5075503;28;20296;-73
2024/01/28 06:36:48;;;;;;;13.05;8.27;;;-0.10;69.30;;;;;;5075793;28;20225;-73
2024/01/28 06:39:15;;;;;;;16.55;7.40;;;-0.10;69.40;;;;;;5076285;28;20215;-73
2024/01/28 06:41:43;;;;;;;9.80;6.38;;;0.00;69.30;;;;;;5075675;28;20239;-73
2024/01/28 06:44:10;;;;;;;12.52;7.70;;;0.00;68.40;;;;;;5075567;28;20243;-73
2024/01/28 06:46:37;;;;;;;12.70;7.32;;;0.00;66.90;;;;;;5075333;28;20702;-72
2024/01/28 06:49:05;;;;;;;5.53;4.07;;;0.00;65.70;;;;;;5089235;28;20231;-73
2024/01/28 06:51:32;;;;;;;4.97;3.38;;;0.00;65.20;;;;;;5095526;28;20192;-72
2024/01/28 06:53:59;;;;;;;5.88;3.75;;;0.00;64.50;;;;;;5095588;28;20248;-72
2024/01/28 06:56:26;;;;;;;6.78;3.30;;;-0.10;64.70;;;;;;5095215;28;20673;-72
2024/01/28 06:58:54;;;;;;;6.93;3.63;;;-0.20;65.40;;;;;;5083319;28;20529;-73
2024/01/28 07:01:21;;;;;;;6.72;3.63;;;-0.20;66.00;;;;;;5075119;28;20641;-72
2024/01/28 07:03:48;;;;;;;5.80;3.75;;;-0.20;66.30;;;;;;5074821;28;20225;-72
2024/01/28 07:06:15;;;;;;;5.30;3.95;;;-0.20;66.30;;;;;;5075104;28;20232;-73
2024/01/28 07:08:42;;;;;;;6.55;3.85;;;-0.20;66.60;;;;;;5084923;28;20193;-72
2024/01/28 07:11:10;;;;;;;6.65;4.00;;;-0.10;65.60;;;;;;5095198;28;20185;-73
2024/01/28 07:13:40;;;;;;;10.60;5.40;;;0.00;65.70;;;;;;5095061;28;20187;-73
2024/01/28 07:16:09;;;;;;;17.05;8.10;;;0.10;66.60;;;;;;5078712;28;20174;-72
2024/01/28 07:18:36;;;;;;;15.40;10.43;;;0.20;67.00;;;;;;5074841;28;20275;-73
2024/01/28 07:21:04;;;;;;;12.13;7.50;;;0.40;67.70;;;;;;5088019;28;20205;-72
2024/01/28 07:23:31;;;;;;;8.32;6.10;;;0.60;67.20;;;;;;5093344;28;20204;-73
2024/01/28 07:25:58;;;;;;;10.75;6.32;;;0.70;66.90;;;;;;5094485;28;20192;-73
2024/01/28 07:28:25;;;;;;;9.68;6.22;;;0.80;67.10;;;;;;5094600;28;20182;-73
2024/01/28 07:30:52;;;;;;;8.20;5.80;;;1.00;65.70;;;;;;5094795;28;20561;-74
2024/01/28 07:33:20;;;;;;;12.38;6.15;;;1.20;65.90;;;;;;5079591;28;20212;-73
2024/01/28 07:35:47;;;;;;;14.40;7.90;;;1.30;64.90;;;;;;5074014;28;20296;-72
2024/01/28 07:38:14;;;;;;;10.85;6.82;;;1.40;65.70;;;;;;5074084;28;20274;-73
2024/01/28 07:40:41;;;;;;;11.52;6.28;;;1.60;65.00;;;;;;5080175;28;20216;-73
2024/01/28 07:43:08;;;;;;;13.93;7.90;;;1.80;64.50;;;;;;5094872;28;20217;-73
2024/01/28 07:45:37;;;;;;;16.02;9.88;;;1.90;64.80;;;;;;5094209;28;20242;-72
2024/01/28 07:48:04;;;;;;;27.00;17.15;;;2.10;65.20;;;;;;5094438;28;20191;-73
2024/01/28 07:50:32;;;;;;;20.15;12.82;;;2.30;65.40;;;;;;5094148;28;20221;-72
2024/01/28 07:52:59;;;;;;;16.80;10.60;;;2.50;65.40;;;;;;5094144;28;20186;-73
2024/01/28 07:55:26;;;;;;;17.45;9.82;;;2.70;64.80;;;;;;5094563;28;20211;-73
2024/01/28 07:57:54;;;;;;;12.27;8.75;;;3.00;64.10;;;;;;5077232;28;20210;-73
2024/01/28 08:00:22;;;;;;;15.88;10.90;;;3.10;64.10;;;;;;5079703;28;20186;-73
2024/01/28 08:02:49;;;;;;;13.60;10.88;;;3.40;62.60;;;;;;5093935;28;20232;-73
2024/01/28 08:05:16;;;;;;;30.30;18.13;;;3.50;61.90;;;;;;5094336;28;20595;-73
2024/01/28 08:07:44;;;;;;;24.13;14.95;;;3.70;61.80;;;;;;5094115;28;20189;-73
2024/01/28 08:10:11;;;;;;;17.42;10.27;;;3.90;61.90;;;;;;5093714;28;20212;-73
2024/01/28 08:12:38;;;;;;;16.38;12.48;;;4.10;61.60;;;;;;5094024;28;20189;-72
2024/01/28 08:15:06;;;;;;;16.33;12.02;;;4.40;60.90;;;;;;5093073;28;20295;-73
2024/01/28 08:17:33;;;;;;;23.30;15.55;;;4.60;60.20;;;;;;5093448;28;20678;-73
2024/01/28 08:20:00;;;;;;;35.20;23.55;;;4.90;59.20;;;;;;5093576;28;20213;-72
2024/01/28 08:22:27;;;;;;;20.10;15.35;;;5.10;58.70;;;;;;5077247;28;20186;-72
2024/01/28 08:24:56;;;;;;;11.00;8.32;;;5.40;59.00;;;;;;5066386;28;20281;-72
2024/01/28 08:27:23;;;;;;;22.67;18.88;;;5.60;58.50;;;;;;5092367;28;20178;-72
2024/01/28 08:29:50;;;;;;;20.15;17.85;;;5.90;57.30;;;;;;5092435;28;20225;-72
2024/01/28 08:32:17;;;;;;;8.45;6.75;;;6.00;57.50;;;;;;5093478;28;20217;-73
2024/01/28 08:34:46;;;;;;;6.25;4.82;;;6.20;57.10;;;;;;5072091;28;20702;-72
2024/01/28 08:37:13;;;;;;;6.40;4.45;;;6.40;57.20;;;;;;5073054;28;20190;-72
2024/01/28 08:39:40;;;;;;;5.50;4.25;;;6.90;56.80;;;;;;5073169;28;20182;-72
2024/01/28 08:42:08;;;;;;;4.50;3.10;;;7.10;56.20;;;;;;5073431;28;20269;-72
2024/01/28 08:44:36;;;;;;;7.13;6.00;;;7.30;55.90;;;;;;5076454;28;20261;-72
2024/01/28 08:47:03;;;;;;;5.30;2.90;;;7.50;53.90;;;;;;5093023;28;20192;-72
2024/01/28 08:49:30;;;;;;;6.43;4.15;;;7.60;53.60;;;;;;5093045;28;20193;-72
2024/01/28 08:51:57;;;;;;;12.23;7.50;;;7.80;53.80;;;;;;5092958;28;20276;-72
2024/01/28 08:54:25;;;;;;;7.65;5.28;;;8.00;53.90;;;;;;5092679;28;20201;-72
2024/01/28 08:56:51;;;;;;;3.92;2.60;;;8.30;53.90;;;;;;5084931;28;20174;-72
2024/01/28 08:59:20;;;;;;;5.20;2.88;;;8.60;53.70;;;;;;5072528;28;20228;-72
2024/01/28 09:01:49;;;;;;;4.50;2.65;;;9.10;53.40;;;;;;5073078;28;20269;-72
2024/01/28 09:04:16;;;;;;;3.70;2.55;;;9.40;53.00;;;;;;5073083;28;20227;-72
2024/01/28 09:06:43;;;;;;;6.00;2.90;;;9.80;50.40;;;;;;5073105;28;20529;-72
2024/01/28 09:09:11;;;;;;;4.53;2.70;;;10.10;49.80;;;;;;5073904;28;20224;-72
2024/01/28 09:11:38;;;;;;;3.55;2.42;;;10.40;48.50;;;;;;5072507;28;20187;-72
2024/01/28 09:14:05;;;;;;;3.80;3.00;;;10.70;48.30;;;;;;5091154;28;20220;-72
2024/01/28 09:16:33;;;;;;;3.67;2.38;;;11.00;48.00;;;;;;5092836;28;20635;-72
2024/01/28 09:19:03;;;;;;;3.45;2.53;;;11.30;47.00;;;;;;5092668;28;20218;-72
2024/01/28 09:21:30;;;;;;;3.58;2.55;;;11.50;46.40;;;;;;5093079;28;20566;-72
2024/01/28 09:23:58;;;;;;;3.15;2.20;;;11.90;47.10;;;;;;5093229;28;20195;-72
2024/01/28 09:26:25;;;;;;;4.53;2.60;;;12.10;46.50;;;;;;5092032;28;20187;-72
2024/01/28 09:28:52;;;;;;;4.30;2.60;;;12.30;45.40;;;;;;5078146;28;20499;-72
2024/01/28 09:31:19;;;;;;;4.50;2.27;;;12.50;45.20;;;;;;5088011;28;20502;-72
2024/01/28 09:33:47;;;;;;;3.97;2.53;;;12.80;45.10;;;;;;5093013;28;20434;-72
2024/01/28 09:36:14;;;;;;;5.27;2.60;;;13.10;44.70;;;;;;5092877;28;20521;-73
2024/01/28 09:38:41;;;;;;;3.60;2.60;;;13.30;43.40;;;;;;5075348;28;20432;-71
2024/01/28 09:41:17;;;;;;;4.60;3.17;;;13.50;43.00;;;;;;5072418;28;20528;-72
2024/01/28 09:43:44;;;;;;;4.67;2.93;;;13.70;43.50;;;;;;5072802;28;20452;-72
2024/01/28 09:46:12;;;;;;;4.33;2.60;;;13.90;42.90;;;;;;5090710;28;20937;-72
2024/01/28 09:48:39;;;;;;;6.97;3.87;;;14.20;41.80;;;;;;5093087;28;20442;-72
2024/01/28 09:51:09;;;;;;;5.63;3.57;;;14.30;41.20;;;;;;5076013;28;20468;-72
2024/01/28 09:53:36;;;;;;;4.70;2.87;;;14.40;41.20;;;;;;5076216;28;20834;-72
2024/01/28 09:56:04;;;;;;;4.80;3.10;;;14.60;41.00;;;;;;5076039;28;20558;-72
2024/01/28 09:58:31;;;;;;;5.37;2.63;;;14.90;41.50;;;;;;5078001;28;20468;-73
2024/01/28 10:00:58;;;;;;;5.83;4.00;;;15.10;39.60;;;;;;5096386;28;20510;-72
2024/01/28 10:03:25;;;;;;;4.80;3.10;;;15.20;39.40;;;;;;5096368;28;20446;-73
2024/01/28 10:05:52;;;;;;;3.83;3.00;;;15.40;39.30;;;;;;5095899;28;20492;-72
2024/01/28 10:08:21;;;;;;;5.03;3.03;;;15.60;39.80;;;;;;5082015;28;20428;-72
2024/01/28 10:10:48;;;;;;;14.70;9.10;;;15.80;38.80;;;;;;5075989;28;20486;-73
2024/01/28 10:13:15;;;;;;;4.97;2.20;;;16.00;38.70;;;;;;5075898;28;20489;-73
2024/01/28 10:15:42;;;;;;;3.30;2.40;;;16.20;38.40;;;;;;5076136;28;20808;-72
2024/01/28 10:18:10;;;;;;;3.37;2.00;;;16.40;37.50;;;;;;5075428;28;20559;-73
2024/01/28 10:20:37;;;;;;;3.80;2.47;;;16.70;38.30;;;;;;5090946;28;20440;-72
2024/01/28 10:23:04;;;;;;;3.00;1.83;;;16.90;36.50;;;;;;5095982;28;20440;-73
2024/01/28 10:25:33;;;;;;;3.27;2.17;;;17.20;36.00;;;;;;5090992;28;20503;-73
2024/01/28 10:28:02;;;;;;;3.57;1.83;;;17.40;35.60;;;;;;5075412;28;20436;-73
2024/01/28 10:30:29;;;;;;;3.17;1.80;;;17.50;35.00;;;;;;5076432;28;20823;-73
2024/01/28 10:32:56;;;;;;;3.20;1.83;;;17.70;35.20;;;;;;5090769;28;20831;-73
2024/01/28 10:35:25;;;;;;;3.00;1.50;;;17.90;35.20;;;;;;5085984;28;20497;-73
2024/01/28 10:37:53;;;;;;;2.60;1.70;;;18.10;34.90;;;;;;5095566;28;20767;-73
2024/01/28 10:40:23;;;;;;;3.50;2.30;;;18.30;33.90;;;;;;5095749;28;20441;-73
2024/01/28 10:42:56;;;;;;;3.37;2.20;;;18.40;34.30;;;;;;5095368;28;20430;-73
2024/01/28 10:45:24;;;;;;;3.60;2.30;;;18.60;31.40;;;;;;5089617;28;20426;-73
2024/01/28 10:47:54;;;;;;;4.30;2.60;;;18.40;30.60;;;;;;5090726;28;20462;-73
2024/01/28 10:50:22;;;;;;;4.70;2.60;;;18.30;31.90;;;;;;5095094;28;20479;-74
2024/01/28 10:52:49;;;;;;;3.80;2.20;;;18.40;32.60;;;;;;5090000;28;20424;-72
2024/01/28 10:55:17;;;;;;;3.30;2.33;;;18.50;32.70;;;;;;5094516;28;20549;-73
2024/01/28 10:57:45;;;;;;;6.77;3.03;;;18.60;33.60;;;;;;5094547;28;20441;-73
2024/01/28 11:00:20;;;;;;;4.77;2.90;;;18.90;33.90;;;;;;5094859;28;21325;-74
2024/01/28 11:02:49;;;;;;;3.97;2.33;;;19.20;33.40;;;;;;5089058;28;20420;-73
2024/01/28 11:05:17;;;;;;;4.90;3.10;;;19.40;32.70;;;;;;5082047;28;20435;-73
2024/01/28 11:07:44;;;;;;;4.10;3.20;;;19.70;32.00;;;;;;5095169;28;20477;-73
2024/01/28 11:10:11;;;;;;;4.33;3.00;;;19.80;31.40;;;;;;5093562;28;20427;-73
2024/01/28 11:12:39;;;;;;;6.67;2.60;;;20.00;31.20;;;;;;5094202;28;20530;-74
2024/01/28 11:15:11;;;;;;;3.97;2.33;;;20.20;32.50;;;;;;5083101;28;20467;-73
2024/01/28 11:17:39;;;;;;;3.23;2.30;;;20.40;31.20;;;;;;5088459;28;20459;-73
2024/01/28 11:20:07;;;;;;;5.27;3.37;;;20.60;30.60;;;;;;5094276;28;20826;-73
2024/01/28 11:22:47;;;;;;;5.43;2.77;;;20.60;31.30;;;;;;5094655;28;20513;-73
2024/01/28 11:25:19;;;;;;;3.47;2.07;;;20.80;30.10;;;;;;5094675;28;20737;-73
2024/01/28 11:27:47;;;;;;;3.27;1.87;;;20.90;29.80;;;;;;5094948;28;20507;-73
2024/01/28 11:30:15;;;;;;;4.57;2.83;;;21.00;29.60;;;;;;5081611;28;20454;-73
2024/01/28 11:32:43;;;;;;;4.03;2.30;;;21.20;29.90;;;;;;5082467;28;20439;-73
2024/01/28 11:35:11;;;;;;;5.53;2.00;;;21.30;29.00;;;;;;5092227;28;20471;-73
2024/01/28 11:37:47;;;;;;;4.50;1.97;;;21.30;28.30;;;;;;5073585;28;20432;-72
2024/01/28 11:40:21;;;;;;;3.20;2.00;;;21.30;29.50;;;;;;5072501;28;20509;-73
2024/01/28 11:42:50;;;;;;;4.20;1.90;;;21.40;29.70;;;;;;5092218;28;20415;-73
2024/01/28 11:45:17;;;;;;;3.23;1.80;;;21.50;29.30;;;;;;5092841;28;20474;-73
2024/01/28 11:47:46;;;;;;;4.77;3.30;;;21.60;29.00;;;;;;5092877;28;20897;-73
2024/01/28 11:50:13;;;;;;;5.93;2.70;;;21.80;28.10;;;;;;5090294;28;20466;-74
2024/01/28 11:52:40;;;;;;;3.77;2.17;;;21.90;28.80;;;;;;5085461;28;20962;-73
2024/01/28 11:55:12;;;;;;;5.10;2.67;;;22.00;27.90;;;;;;5079729;28;20534;-73
2024/01/28 11:57:40;;;;;;;3.73;2.50;;;22.00;27.80;;;;;;5079075;28;20528;-73
2024/01/28 12:00:09;;;;;;;5.47;3.10;;;22.00;27.80;;;;;;5093156;28;20467;-73
2024/01/28 12:02:37;;;;;;;4.30;2.60;;;22.10;26.80;;;;;;5092854;28;20758;-73
2024/01/28 12:05:07;;;;;;;4.43;2.30;;;22.20;27.90;;;;;;5089078;28;20495;-73
2024/01/28 12:07:37;;;;;;;5.20;2.83;;;22.20;26.90;;;;;;5083842;28;20439;-73
2024/01/28 12:10:09;;;;;;;2.80;1.53;;;22.30;27.10;;;;;;5091587;28;20459;-73
2024/01/28 12:12:37;;;;;;;5.83;2.30;;;22.30;26.70;;;;;;5093434;28;20762;-73
2024/01/28 12:15:05;;;;;;;2.97;1.67;;;22.40;26.00;;;;;;5090132;28;20488;-73
2024/01/28 12:17:35;;;;;;;3.00;1.90;;;22.40;26.80;;;;;;5076340;28;20547;-72
2024/01/28 12:20:04;;;;;;;3.80;2.23;;;22.40;26.60;;;;;;5092498;28;20761;-72
2024/01/28 12:22:37;;;;;;;3.77;2.13;;;22.40;26.80;;;;;;5084184;28;20424;-73
2024/01/28 12:25:14;;;;;;;4.80;2.17;;;22.40;25.80;;;;;;5093103;28;20441;-73
2024/01/28 12:27:42;;;;;;;2.97;1.93;;;22.30;26.40;;;;;;5083416;28;20515;-72
2024/01/28 12:30:10;;;;;;;3.70;1.90;;;22.30;27.00;;;;;;5089569;28;20514;-72
2024/01/28 12:32:40;;;;;;;3.27;1.63;;;22.20;26.90;;;;;;5091061;28;20777;-72
2024/01/28 12:35:09;;;;;;;3.70;1.87;;;22.10;27.00;;;;;;5092977;28;20530;-73
2024/01/28 12:37:38;;;;;;;3.80;2.33;;;22.00;26.10;;;;;;5088062;28;20437;-72
2024/01/28 12:40:12;;;;;;;5.33;2.80;;;22.00;25.90;;;;;;5085172;28;21070;-72
2024/01/28 12:42:40;;;;;;;3.60;2.40;;;21.90;26.40;;;;;;5089206;28;20526;-72
2024/01/28 12:45:08;;;;;;;5.07;2.80;;;21.90;26.50;;;;;;5089239;28;20946;-72
2024/01/28 12:47:37;;;;;;;3.83;2.10;;;21.80;26.60;;;;;;5091075;28;20500;-71
2024/01/28 12:50:05;;;;;;;3.40;2.23;;;21.70;26.70;;;;;;5089502;28;20441;-72
2024/01/28 12:52:32;;;;;;;4.27;2.20;;;21.70;26.90;;;;;;5090857;28;20435;-72